Amboy, WA

3:25 PM PDT on September 17, 2014 (GMT -0700)
Rock Creek Area | Change Station
CLOSE
Current Station
Personal Weather Station
Location: Battle Ground, WA
Elevation: 420 ft
Nearby Weather Stations
4.0 Earthquake: Seabeck, Washington (12 hours ago)  

Elev 420 ft 45.85 °N, 122.52 °W | Updated 48 seconds ago

Mostly Cloudy
Mostly Cloudy
74.4 °F
Feels Like 77 °F
N
0.0
Wind Variable Wind from SW
Gusts 0.0 mph

Today
High -- | Low -- °F
--% Chance of Precip.
Yesterday
High -- | Low -- °F
Precip. -- in
6:50 AM 7:17 PM
Waning Crescent, 32% visible
Pressure 29.68 in
Visibility 10.0 miles
Clouds Clear
Heat Index 77 °F
Dew Point 60 °F
Humidity 61%
Rainfall 0.00 in
Snow Depth 0 in , 0 in , 0 in
UV 0.0 out of 12
Pollen 2.40 out of 12
Air Quality Not available.
Flu Activity Not available.
METAR KSPB 172153Z AUTO 33003KT 10SM CLR 26/10 A2968 RMK AO2 SLP051 T02560100

More Conditions Fewer Conditions

Pressure 29.68 in
Visibility 10.0 miles
Clouds Clear
Heat Index 77 °F
Dew Point 60 °F
Humidity 61%
Rainfall 0.00 in
Snow Depth 0 in , 0 in , 0 in
UV 0.0 out of 12
Pollen 2.40 out of 12
Air Quality Not available.
Flu Activity Not available.
METAR KSPB 172153Z AUTO 33003KT 10SM CLR 26/10 A2968 RMK AO2 SLP051 T02560100

More Conditions Fewer Conditions

10-Day Weather Forecast

Almanac

Astronomy

Sep. 17, 2014 Rise Set
Actual Time 6:50 AM PDT 7:17 PM PDT
Civil Twilight 6:20 AM PDT 7:46 PM PDT
Nautical Twilight 5:45 AM PDT 8:22 PM PDT
Astronomical Twilight 5:08 AM PDT 8:58 PM PDT
Moon 12:42 AM PDT 3:43 PM PDT
Length of Visible Light 13h 26m
Length of Day
12h 26m
Tomorrow will be 3m 11s shorter.
Waning Crescent, 32% of the Moon is Illuminated
Today
Waning Crescent
Sep 24
New
Oct 1
First Quarter
Oct 8
Full
Oct 15
Last Quarter

Today's Extremes

State Highs State Lows

Community

WunderPhotos

Upload Photos

1,754,174 photos uploaded!

Nearby

Snow Depth

Station Depth Elevation
Stevens Pass 0 in 4070 ft
Rainy Pass 0 in 4780 ft
Wells Creek 0 in 4200 ft
Grouse Camp 0 in 5380 ft
Meadows Pass 0 in 3500 ft

Earthquake Activity

City Distance Mag. Time & Date
Seabeck, Washington 119 miles 4.0 3:06 AM PDT
2014-09-17
Morton, Washington 32 miles 3.0 5:43 AM PDT
2014-09-16
Minimum magnitude displayed is 2.5.

Coastal Water Temperatures

Place Temperature
No Stations Reporting

Nearby Weather Stations